Dades meteomassalio
Diari Summary for Juliol 23, 2017 Units:  English    Metric   Both
« Previous Day
Next Day »
Diari Semanal Mensual Anual Personalitzat
  Maxima: Minima: Mijana:
Temperatura: TemperatureC °F 16.9 °F 22.4 °F
Rosada: DewpointC °F 14.5 °F 16.9 °F
Humitat: Humidity % 54 % 72 %
Velocitat del vent: WindSpeedKMH mph 0.0 mph 6.1 mph
Racha vent: WindSpeedGustKMH mph - -
Vent:- - SSW
Pressio: PressurehPa in 1014.1 in -
Pluja: 8.9 in    
Historical Graphs
 
 
Tabular Data for Juliol 23, 2017
Time Temperature Dew Point Pressure Wind Wind Speed Wind Gust Humidity Rainfall Rate (Hourly) solar Conditions
TemperatureC °F DewpointC °F PressurehPa in Calm     Humidity % HourlyPrecipMM in SolarRadiationWatts/m^2 W/m2 Conditions
00:02 24.6 °F 20.3 °F 1014.1 in Calm     77 % 0.0 in 0.0 W/m2 RA
00:07 24.5 °F 20.2 °F 1014.1 in Calm     77 % 0.0 in 0.0 W/m2 CLR
00:12 24.4 °F 20.3 °F 1014.1 in Calm     78 % 0.0 in 0.0 W/m2 CLR
00:17 24.3 °F 20.2 °F 1014.1 in Calm     78 % 0.0 in 0.0 W/m2 CLR
00:22 24.1 °F 20.2 °F 1014.1 in Calm     79 % 0.0 in 0.0 W/m2 CLR
00:27 24.1 °F 20.2 °F 1014.1 in Calm     79 % 0.0 in 0.0 W/m2 CLR
00:32 23.9 °F 20.3 °F 1014.1 in Calm     80 % 0.0 in 0.0 W/m2 CLR
00:37 23.9 °F 20.2 °F 1014.1 in Calm     80 % 0.0 in 0.0 W/m2 CLR
00:39 23.8 °F 20.2 °F 1014.1 in Calm     80 % 0.0 in 0.0 W/m2 CLR
00:44 23.6 °F 20.2 °F 1014.4 in Calm     81 % 0.0 in 0.0 W/m2 CLR
00:49 23.5 °F 20.1 °F 1014.4 in Calm     81 % 0.0 in 0.0 W/m2 CLR
00:54 23.4 °F 20.0 °F 1014.4 in Calm     81 % 0.0 in 0.0 W/m2 CLR
00:59 23.4 °F 19.9 °F 1014.4 in Calm     81 % 0.0 in 0.0 W/m2 CLR
01:04 23.4 °F 20.0 °F 1014.4 in Calm     81 % 0.0 in 0.0 W/m2 CLR
01:09 23.5 °F 19.8 °F 1014.4 in Calm     80 % 0.0 in 0.0 W/m2 CLR
01:14 23.5 °F 19.8 °F 1014.4 in Calm     80 % 0.0 in 0.0 W/m2 CLR
01:19 23.4 °F 19.7 °F 1014.4 in Calm     80 % 0.0 in 0.0 W/m2 CLR
01:24 23.3 °F 19.9 °F 1014.4 in Calm     81 % 0.0 in 0.0 W/m2 CLR
01:29 23.3 °F 19.6 °F 1014.4 in Calm     80 % 0.0 in 0.0 W/m2 CLR
01:34 23.5 °F 19.7 °F 1014.8 in Calm     79 % 0.0 in 0.0 W/m2 CLR
01:39 23.7 °F 19.9 °F 1014.8 in Calm     79 % 0.0 in 0.0 W/m2 CLR
01:44 23.6 °F 19.8 °F 1014.8 in Calm     79 % 0.0 in 0.0 W/m2 CLR
01:49 23.4 °F 19.8 °F 1014.8 in Calm     80 % 0.0 in 0.0 W/m2 CLR
01:54 23.1 °F 19.7 °F 1014.8 in Calm     81 % 0.0 in 0.0 W/m2 CLR
01:59 22.9 °F 19.7 °F 1015.1 in Calm     82 % 0.0 in 0.0 W/m2 CLR
02:04 22.7 °F 19.7 °F 1015.1 in Calm     83 % 0.0 in 0.0 W/m2 CLR
02:09 22.6 °F 19.7 °F 1015.1 in Calm     84 % 0.0 in 0.0 W/m2 CLR
02:14 22.4 °F 19.6 °F 1015.1 in Calm     84 % 0.0 in 0.0 W/m2 CLR
02:19 22.2 °F 19.5 °F 1015.1 in Calm     85 % 0.0 in 0.0 W/m2 CLR
02:24 22.0 °F 19.3 °F 1015.1 in Calm     85 % 0.0 in 0.0 W/m2 CLR
02:29 21.9 °F 19.4 °F 1015.5 in Calm     86 % 0.0 in 0.0 W/m2 CLR
02:34 21.9 °F 19.4 °F 1015.5 in NW 29.6 mph 29.6 mph 86 % 0.0 in 0.0 W/m2 CLR
02:39 21.9 °F 18.3 °F 1015.8 in NW 25.9 mph 25.9 mph 80 % 0.0 in 0.0 W/m2 CLR
02:44 21.7 °F 17.5 °F 1015.8 in NW 25.9 mph 25.9 mph 77 % 0.0 in 0.0 W/m2 CLR
02:49 21.5 °F 17.1 °F 1015.8 in WNW 27.8 mph 27.8 mph 76 % 0.0 in 0.0 W/m2 CLR
02:54 21.3 °F 16.7 °F 1015.8 in NNW 25.9 mph 25.9 mph 75 % 0.0 in 0.0 W/m2 CLR
02:59 21.3 °F 16.4 °F 1015.8 in WNW 25.9 mph 25.9 mph 74 % 0.0 in 0.0 W/m2 CLR
03:04 21.3 °F 16.3 °F 1015.8 in NW 18.5 mph 18.5 mph 73 % 0.0 in 0.0 W/m2 CLR
03:09 21.3 °F 16.0 °F 1016.1 in NW 18.5 mph 18.5 mph 72 % 0.0 in 0.0 W/m2 CLR
03:14 21.3 °F 16.2 °F 1016.1 in WNW 5.6 mph 5.6 mph 73 % 0.0 in 0.0 W/m2 CLR
03:19 21.2 °F 16.1 °F 1016.1 in Calm     73 % 0.0 in 0.0 W/m2 CLR
03:24 21.1 °F 16.1 °F 1016.1 in Calm     73 % 0.0 in 0.0 W/m2 CLR
03:29 21.1 °F 16.1 °F 1016.1 in Calm     73 % 0.0 in 0.0 W/m2 CLR
03:34 21.2 °F 15.9 °F 1016.1 in Calm     72 % 0.0 in 0.0 W/m2 CLR
03:39 21.2 °F 15.7 °F 1016.1 in Calm     71 % 0.0 in 0.0 W/m2 CLR
03:44 21.1 °F 15.7 °F 1016.5 in Calm     71 % 0.0 in 0.0 W/m2 CLR
03:49 21.1 °F 15.8 °F 1016.5 in Calm     72 % 0.0 in 0.0 W/m2 CLR
03:54 21.1 °F 15.6 °F 1016.5 in Calm     71 % 0.0 in 0.0 W/m2 CLR
03:59 21.1 °F 15.8 °F 1016.8 in Calm     72 % 0.0 in 0.0 W/m2 CLR
04:04 20.9 °F 15.7 °F 1016.5 in Calm     72 % 0.0 in 0.0 W/m2 CLR
04:09 20.9 °F 15.7 °F 1016.5 in Calm     72 % 0.0 in 0.0 W/m2 CLR
04:14 20.8 °F 15.6 °F 1016.8 in Calm     72 % 0.0 in 0.0 W/m2 CLR
04:19 20.7 °F 15.5 °F 1016.8 in WSW 11.1 mph 11.1 mph 72 % 0.0 in 0.0 W/m2 CLR
04:24 20.7 °F 15.2 °F 1016.8 in West 14.5 mph 14.5 mph 71 % 0.0 in 0.0 W/m2 CLR
04:29 20.7 °F 15.3 °F 1016.8 in WSW 9.3 mph 9.3 mph 71 % 0.0 in 0.0 W/m2 CLR
04:34 20.7 °F 15.1 °F 1016.8 in West 14.8 mph 14.8 mph 70 % 0.0 in 0.0 W/m2 CLR
04:39 20.7 °F 15.0 °F 1016.8 in West 16.7 mph 16.7 mph 70 % 0.0 in 0.0 W/m2 CLR
04:44 20.7 °F 15.0 °F 1016.8 in WSW 13.0 mph 13.0 mph 70 % 0.0 in 0.0 W/m2 CLR
04:49 20.7 °F 15.0 °F 1016.8 in WNW 11.1 mph 11.1 mph 70 % 0.0 in 0.0 W/m2 CLR
04:54 20.6 °F 14.9 °F 1016.8 in West 18.5 mph 18.5 mph 70 % 0.0 in 0.0 W/m2 CLR
04:59 20.6 °F 14.9 °F 1016.8 in West 11.1 mph 11.1 mph 70 % 0.0 in 0.0 W/m2 CLR
05:04 20.5 °F 14.8 °F 1017.2 in WSW 12.9 mph 12.9 mph 70 % 0.0 in 0.0 W/m2 CLR
05:09 20.4 °F 15.0 °F 1016.8 in Calm     71 % 0.0 in 0.0 W/m2 CLR
05:14 20.4 °F 14.7 °F 1017.2 in West 13.0 mph 13.0 mph 70 % 0.0 in 0.0 W/m2 CLR
05:19 20.4 °F 14.9 °F 1017.2 in West 16.7 mph 16.7 mph 71 % 0.0 in 0.0 W/m2 CLR
05:24 20.3 °F 14.8 °F 1017.2 in West 13.0 mph 13.0 mph 71 % 0.0 in 0.0 W/m2 CLR
05:30 20.3 °F 14.8 °F 1017.2 in West 16.7 mph 16.7 mph 71 % 0.0 in 0.0 W/m2 CLR
05:35 20.2 °F 14.8 °F 1017.2 in West 11.1 mph 11.1 mph 71 % 0.0 in 0.0 W/m2 CLR
05:40 20.2 °F 14.8 °F 1017.5 in West 18.5 mph 18.5 mph 71 % 0.0 in 0.0 W/m2 CLR
05:45 20.2 °F 14.7 °F 1017.5 in West 9.3 mph   71 % 0.0 in 0.0 W/m2 CLR
05:50 20.2 °F 14.7 °F 1017.5 in West 13.0 mph 13.0 mph 71 % 0.0 in 0.0 W/m2 CLR
05:55 20.2 °F 14.7 °F 1017.5 in Calm     71 % 0.0 in 0.0 W/m2 CLR
06:00 20.1 °F 14.7 °F 1017.5 in West 17.7 mph 17.7 mph 71 % 0.0 in 0.0 W/m2 CLR
06:05 20.1 °F 14.7 °F 1017.8 in West 9.3 mph 9.3 mph 71 % 0.0 in 0.0 W/m2 CLR
06:10 20.1 °F 14.7 °F 1017.8 in West 11.1 mph 11.1 mph 71 % 0.0 in 0.0 W/m2 CLR
06:15 20.1 °F 14.7 °F 1017.8 in West 11.1 mph 11.1 mph 71 % 0.0 in 0.0 W/m2 CLR
06:20 20.1 °F 14.6 °F 1017.8 in WSW 7.4 mph 7.4 mph 71 % 0.0 in 0.0 W/m2 CLR
06:25 20.0 °F 14.8 °F 1017.8 in Calm   2.1 mph 72 % 0.0 in 0.0 W/m2 CLR
06:30 20.0 °F 14.8 °F 1017.8 in West 13.0 mph 13.0 mph 72 % 0.0 in 0.0 W/m2 CLR
06:35 19.9 °F 14.7 °F 1017.8 in West 5.6 mph 5.6 mph 72 % 0.0 in 0.0 W/m2 CLR
06:40 19.9 °F 14.7 °F 1017.8 in West 7.4 mph 7.4 mph 72 % 0.0 in 0.0 W/m2 OVC
06:45 19.9 °F 14.7 °F 1017.8 in Calm     72 % 0.0 in 0.0 W/m2 OVC
06:50 19.9 °F 14.7 °F 1017.8 in Calm     72 % 0.0 in 0.0 W/m2 OVC
06:55 19.8 °F 14.6 °F 1017.8 in WSW 4.8 mph 4.8 mph 72 % 0.0 in 5.0 W/m2 OVC
07:00 19.8 °F 14.6 °F 1018.2 in Calm     72 % 0.0 in 7.0 W/m2 BKN
07:05 19.8 °F 14.6 °F 1018.2 in WSW 5.6 mph 5.6 mph 72 % 0.0 in 9.0 W/m2 BKN
07:10 19.8 °F 14.6 °F 1018.2 in WSW 3.7 mph   72 % 0.0 in 11.0 W/m2 BKN
07:15 19.8 °F 14.6 °F 1018.2 in Calm     72 % 0.0 in 12.0 W/m2 BKN
07:20 19.8 °F 14.8 °F 1018.2 in Calm     73 % 0.0 in 16.0 W/m2 BKN
07:25 19.8 °F 14.8 °F 1018.2 in Calm     73 % 0.0 in 19.0 W/m2 BKN
07:30 19.7 °F 14.7 °F 1018.2 in Calm     73 % 0.0 in 21.0 W/m2 BKN
07:35 19.8 °F 14.8 °F 1018.5 in Calm     73 % 0.0 in 21.0 W/m2 BKN
07:40 19.8 °F 14.8 °F 1018.5 in Calm     73 % 0.0 in 21.0 W/m2 BKN
07:45 19.8 °F 14.8 °F 1018.2 in Calm     73 % 0.0 in 28.0 W/m2 BKN
07:50 19.8 °F 14.8 °F 1018.2 in Calm     73 % 0.0 in 37.0 W/m2 BKN
07:55 19.8 °F 14.6 °F 1018.2 in Calm   0.2 mph 72 % 0.0 in 33.0 W/m2 BKN
08:00 19.9 °F 14.9 °F 1018.2 in Calm     73 % 0.0 in 44.0 W/m2 BKN
08:05 19.9 °F 14.7 °F 1018.5 in Calm   1.0 mph 72 % 0.0 in 44.0 W/m2 BKN
08:10 20.0 °F 14.8 °F 1018.5 in Calm     72 % 0.0 in 47.0 W/m2 BKN
08:15 20.1 °F 14.8 °F 1018.5 in Calm     72 % 0.0 in 51.0 W/m2 SCT
08:20 20.1 °F 14.9 °F 1018.5 in Calm     72 % 0.0 in 51.0 W/m2 SCT
08:25 20.2 °F 14.9 °F 1018.5 in Calm     72 % 0.0 in 67.0 W/m2 SCT
08:30 20.2 °F 15.0 °F 1018.5 in Calm     72 % 0.0 in 69.0 W/m2 SCT
08:35 20.2 °F 14.8 °F 1018.5 in West 7.4 mph 7.4 mph 71 % 0.0 in 51.0 W/m2 SCT
08:40 20.3 °F 14.8 °F 1018.2 in NW 8.0 mph 8.0 mph 71 % 0.0 in 109.0 W/m2 FEW
08:45 20.4 °F 14.7 °F 1018.5 in WNW 11.1 mph 11.1 mph 70 % 0.0 in 70.0 W/m2 CLR
08:50 20.4 °F 14.7 °F 1018.5 in NW 11.1 mph 11.1 mph 70 % 0.0 in 88.0 W/m2 CLR
08:55 20.4 °F 14.8 °F 1018.8 in NW 11.1 mph 11.1 mph 70 % 0.0 in 100.0 W/m2 FEW
09:00 20.4 °F 14.8 °F 1018.5 in WNW 7.4 mph 7.4 mph 70 % 0.0 in 132.0 W/m2 CLR
09:05 20.6 °F 14.7 °F 1018.8 in West 9.7 mph 9.7 mph 69 % 0.0 in 114.0 W/m2 CLR
09:10 20.5 °F 14.6 °F 1018.5 in West 5.6 mph 5.6 mph 69 % 0.0 in 167.0 W/m2 CLR
09:15 20.6 °F 14.7 °F 1018.8 in WNW 7.4 mph 7.4 mph 69 % 0.0 in 151.0 W/m2 CLR
09:20 20.6 °F 14.7 °F 1018.8 in WNW 3.7 mph 3.7 mph 69 % 0.0 in 169.0 W/m2 CLR
09:25 20.7 °F 14.8 °F 1018.8 in WNW 9.3 mph 9.3 mph 69 % 0.0 in 146.0 W/m2 CLR
09:30 20.7 °F 14.8 °F 1019.2 in WNW 9.7 mph 9.7 mph 69 % 0.0 in 120.0 W/m2 CLR
09:35 20.6 °F 14.5 °F 1019.2 in WNW 7.4 mph 7.4 mph 68 % 0.0 in 153.0 W/m2 CLR
09:40 20.6 °F 14.5 °F 1019.2 in WNW 13.0 mph 13.0 mph 68 % 0.0 in 142.0 W/m2 CLR
09:45 20.7 °F 14.8 °F 1018.8 in WNW 7.4 mph 7.4 mph 69 % 0.0 in 163.0 W/m2 CLR
09:50 20.7 °F 14.6 °F 1019.2 in West 11.1 mph 11.1 mph 68 % 0.0 in 158.0 W/m2 CLR
09:55 20.8 °F 14.7 °F 1019.2 in West 7.4 mph 7.4 mph 68 % 0.0 in 197.0 W/m2 CLR
10:00 20.8 °F 14.7 °F 1019.2 in West 11.1 mph 11.1 mph 68 % 0.0 in 239.0 W/m2 CLR
10:05 20.9 °F 14.8 °F 1019.2 in WNW 3.7 mph 3.7 mph 68 % 0.0 in 225.0 W/m2 CLR
10:10 21.2 °F 14.8 °F 1018.8 in WSW 9.7 mph 9.7 mph 67 % 0.0 in 360.0 W/m2 CLR
10:15 21.3 °F 15.1 °F 1018.8 in WNW 13.0 mph 13.0 mph 68 % 0.0 in 387.0 W/m2 CLR
10:20 21.6 °F 15.0 °F 1018.8 in WSW 13.0 mph 13.0 mph 66 % 0.0 in 371.0 W/m2 CLR
10:25 21.6 °F 14.7 °F 1018.8 in West 13.0 mph 13.0 mph 65 % 0.0 in 211.0 W/m2 CLR
10:30 21.4 °F 14.8 °F 1018.8 in West 7.4 mph 7.4 mph 66 % 0.0 in 134.0 W/m2 CLR
10:35 21.4 °F 14.8 °F 1018.8 in West 1.6 mph 1.6 mph 66 % 0.0 in 181.0 W/m2 CLR
10:40 21.6 °F 15.2 °F 1018.8 in West 6.4 mph 6.4 mph 67 % 0.0 in 301.0 W/m2 CLR
10:45 21.7 °F 14.8 °F 1018.8 in West 9.3 mph 9.3 mph 65 % 0.0 in 221.0 W/m2 CLR
10:50 21.8 °F 15.2 °F 1018.8 in WNW 11.1 mph 11.1 mph 66 % 0.0 in 533.0 W/m2 CLR
10:55 21.9 °F 14.8 °F 1018.8 in West 13.0 mph 13.0 mph 64 % 0.0 in 250.0 W/m2 CLR
11:00 21.9 °F 14.8 °F 1018.5 in West 6.4 mph 6.4 mph 64 % 0.0 in 376.0 W/m2 CLR
11:05 22.2 °F 15.1 °F 1018.5 in Calm     64 % 0.0 in 763.0 W/m2 CLR
11:11 22.5 °F 15.3 °F 1018.5 in Calm     64 % 0.0 in 432.0 W/m2 CLR
11:16 22.8 °F 15.4 °F 1018.5 in Calm   0.5 mph 63 % 0.0 in 496.0 W/m2 CLR
11:21 23.2 °F 15.2 °F 1018.5 in Calm     61 % 0.0 in 327.0 W/m2 CLR
11:26 23.1 °F 15.1 °F 1018.8 in West 8.0 mph 8.0 mph 61 % 0.0 in 309.0 W/m2 CLR
11:31 22.9 °F 15.3 °F 1018.8 in Calm     62 % 0.0 in 334.0 W/m2 CLR
11:36 23.0 °F 15.3 °F 1018.8 in WNW 9.3 mph 9.3 mph 62 % 0.0 in 413.0 W/m2 CLR
11:41 23.1 °F 15.4 °F 1018.5 in Calm     62 % 0.0 in 527.0 W/m2 CLR
11:46 23.3 °F 15.3 °F 1018.5 in NNW 1.9 mph   61 % 0.0 in 621.0 W/m2 CLR
11:51 23.6 °F 15.3 °F 1018.5 in Calm     60 % 0.0 in 888.0 W/m2 CLR
11:56 23.8 °F 15.6 °F 1018.5 in SSW 1.9 mph 1.9 mph 60 % 0.0 in 888.0 W/m2 CLR
12:01 24.1 °F 15.8 °F 1018.5 in Calm     60 % 0.0 in 492.0 W/m2 CLR
12:06 24.5 °F 15.4 °F 1018.5 in Calm     57 % 0.0 in 506.0 W/m2 CLR
12:11 24.7 °F 15.8 °F 1018.5 in Calm     58 % 0.0 in 589.0 W/m2 CLR
12:16 25.0 °F 16.4 °F 1018.5 in Calm     59 % 0.0 in 969.0 W/m2 CLR
12:21 25.3 °F 15.9 °F 1018.5 in Calm     56 % 0.0 in 364.0 W/m2 CLR
12:26 25.3 °F 16.2 °F 1018.2 in Calm     57 % 0.0 in 605.0 W/m2 CLR
12:31 25.4 °F 16.0 °F 1018.2 in Calm     56 % 0.0 in 856.0 W/m2 CLR
12:36 25.6 °F 16.4 °F 1017.8 in NE 5.6 mph 5.6 mph 57 % 0.0 in 844.0 W/m2 CLR
12:41 25.8 °F 16.4 °F 1017.8 in Calm     56 % 0.0 in 868.0 W/m2 CLR
12:46 25.9 °F 16.4 °F 1017.8 in NNE 3.2 mph 3.2 mph 56 % 0.0 in 814.0 W/m2 CLR
12:51 26.1 °F 16.6 °F 1017.8 in Calm     56 % 0.0 in 861.0 W/m2 CLR
12:56 26.4 °F 16.9 °F 1017.8 in Calm     56 % 0.0 in 874.0 W/m2 CLR
13:01 26.5 °F 16.7 °F 1017.8 in NE 1.9 mph 1.9 mph 55 % 0.0 in 821.0 W/m2 CLR
13:06 26.3 °F 16.6 °F 1018.2 in Calm     55 % 0.0 in 833.0 W/m2 CLR
13:11 26.3 °F 16.8 °F 1017.8 in NE 9.3 mph 9.3 mph 56 % 0.0 in 837.0 W/m2 CLR
13:16 26.4 °F 16.9 °F 1017.8 in Calm     56 % 0.0 in 680.0 W/m2 CLR
13:21 26.7 °F 16.9 °F 1017.8 in Calm     55 % 0.0 in 536.0 W/m2 CLR
13:26 26.9 °F 16.8 °F 1017.8 in Calm     54 % 0.0 in 480.0 W/m2 CLR
13:31 27.2 °F 17.1 °F 1017.8 in ESE 7.4 mph 7.4 mph 54 % 0.0 in 512.0 W/m2 CLR
13:36 27.2 °F 17.1 °F 1017.5 in Calm     54 % 0.0 in 454.0 W/m2 CLR
13:41 27.2 °F 17.1 °F 1017.5 in ENE 14.8 mph 14.8 mph 54 % 0.0 in 454.0 W/m2 CLR
13:46 27.2 °F 17.3 °F 1017.5 in ENE 16.7 mph 16.7 mph 55 % 0.0 in 758.0 W/m2 CLR
13:51 27.2 °F 17.1 °F 1017.2 in NE 11.1 mph 11.1 mph 54 % 0.0 in 896.0 W/m2 CLR
13:56 27.4 °F 17.3 °F 1017.2 in NE 14.8 mph 14.8 mph 54 % 0.0 in 902.0 W/m2 CLR
14:01 27.5 °F 17.4 °F 1017.2 in North 18.5 mph 18.5 mph 54 % 0.0 in 902.0 W/m2 CLR
14:06 27.6 °F 17.4 °F 1016.8 in NNE 11.1 mph 11.1 mph 54 % 0.0 in 939.0 W/m2 CLR
14:12 27.6 °F 17.8 °F 1016.8 in NE 18.5 mph 18.5 mph 55 % 0.0 in 944.0 W/m2 CLR
14:17 27.8 °F 17.6 °F 1016.8 in NE 16.7 mph 16.7 mph 54 % 0.0 in 473.0 W/m2 CLR
14:22 27.7 °F 17.5 °F 1016.8 in ENE 16.1 mph 16.1 mph 54 % 0.0 in 520.0 W/m2 CLR
14:27 27.6 °F 17.8 °F 1016.8 in East 3.7 mph 3.7 mph 55 % 0.0 in 364.0 W/m2 CLR
14:32 27.7 °F 17.8 °F 1016.8 in ENE 13.0 mph 13.0 mph 55 % 0.0 in 954.0 W/m2 CLR
14:37 28.0 °F 17.8 °F 1016.5 in NNE 1.9 mph   54 % 0.0 in 1063.0 W/m2 CLR
14:42 28.6 °F 18.6 °F 1016.5 in ENE 7.4 mph 7.4 mph 55 % 0.0 in 608.0 W/m2 CLR
14:47 28.8 °F 19.2 °F 1016.5 in East 9.3 mph 9.3 mph 56 % 0.0 in 1018.0 W/m2 CLR
14:52 29.3 °F 19.3 °F 1016.5 in ENE 13.0 mph 13.0 mph 55 % 0.0 in 1169.0 W/m2 CLR
14:57 29.3 °F 19.3 °F 1016.1 in ESE 18.5 mph 18.5 mph 55 % 0.0 in 364.0 W/m2 CLR
15:02 28.4 °F 19.3 °F 1016.1 in NE 13.0 mph 13.0 mph 58 % 0.0 in 223.0 W/m2 CLR
15:03 28.3 °F 19.3 °F 1016.1 in ENE 13.0 mph 13.0 mph 58 % 0.0 in 223.0 W/m2 CLR
15:08 28.0 °F 19.5 °F 1016.1 in ENE 18.5 mph 18.5 mph 60 % 0.0 in 139.0 W/m2 CLR
15:13 27.7 °F 19.2 °F 1016.1 in East 11.1 mph 11.1 mph 60 % 0.0 in 125.0 W/m2 CLR
15:18 27.6 °F 19.4 °F 1016.1 in ENE 12.9 mph 12.9 mph 61 % 0.0 in 114.0 W/m2 CLR
15:23 27.5 °F 19.3 °F 1016.1 in East 14.8 mph 14.8 mph 61 % 0.0 in 104.0 W/m2 CLR
15:28 27.3 °F 19.3 °F 1016.1 in ENE 14.8 mph 14.8 mph 62 % 0.0 in 97.0 W/m2 CLR
15:33 27.1 °F 19.2 °F 1015.8 in ENE 11.1 mph 11.1 mph 62 % 0.0 in 79.0 W/m2 CLR
15:38 27.1 °F 19.2 °F 1015.8 in ENE 14.5 mph 14.5 mph 62 % 0.0 in 70.0 W/m2 FEW
15:43 27.0 °F 19.1 °F 1016.1 in ESE 18.5 mph 18.5 mph 62 % 0.0 in 51.0 W/m2 FEW
15:48 27.0 °F 19.1 °F 1016.1 in East 16.1 mph 16.1 mph 62 % 0.0 in 42.0 W/m2 SCT
15:53 26.9 °F 19.1 °F 1016.1 in ENE 11.1 mph 11.1 mph 62 % 0.0 in 19.0 W/m2 BKN
15:58 26.9 °F 19.2 °F 1016.5 in NNE 18.5 mph 18.5 mph 63 % 0.0 in 18.0 W/m2 BKN
16:03 26.4 °F 20.2 °F 1016.8 in NW 40.2 mph 40.2 mph 69 % 0.0 in 5.0 W/m2 BKN
16:08 24.4 °F 20.1 °F 1017.2 in ENE 20.4 mph 20.4 mph 77 % 0.3 in 5.0 W/m2 RA
16:13 23.7 °F 20.3 °F 1017.5 in NNW 32.2 mph 32.2 mph 81 % 1.5 in 0.0 W/m2 RA
16:18 22.8 °F 20.0 °F 1018.2 in NNW 29.6 mph 29.6 mph 84 % 2.0 in 0.0 W/m2 RA
16:23 22.5 °F 19.8 °F 1018.2 in Calm     85 % 5.8 in 5.0 W/m2 RA
16:28 22.3 °F 19.4 °F 1018.2 in NW 16.7 mph 16.7 mph 84 % 7.4 in 5.0 W/m2 RA
16:31 22.1 °F 18.8 °F 1017.8 in Calm     82 % 7.6 in 5.0 W/m2 RA
16:40 21.9 °F 19.1 °F 1017.8 in Calm     84 % 7.9 in 5.0 W/m2 RA
16:45 21.9 °F 19.3 °F 1018.2 in SE 9.7 mph 9.7 mph 85 % 7.9 in 5.0 W/m2 OVC
16:50 21.5 °F 18.9 °F 1018.2 in SE 9.3 mph 9.3 mph 85 % 8.1 in 5.0 W/m2 RA
16:55 21.1 °F 18.4 °F 1018.2 in South 29.6 mph 29.6 mph 85 % 8.1 in 5.0 W/m2 OVC
17:00 19.3 °F 16.6 °F 1017.2 in South 33.3 mph 33.3 mph 84 % 8.1 in 7.0 W/m2 BKN
17:05 18.8 °F 16.4 °F 1017.2 in SSE 41.8 mph 41.8 mph 86 % 8.4 in 11.0 W/m2 RA
17:10 18.1 °F 15.8 °F 1015.5 in SSE 43.4 mph 43.4 mph 87 % 8.4 in 14.0 W/m2 RA
17:15 17.3 °F 14.9 °F 1014.8 in SSE 49.9 mph 49.9 mph 86 % 7.1 in 21.0 W/m2 BKN
17:20 16.9 °F 14.8 °F 1015.8 in South 29.6 mph 29.6 mph 87 % 5.8 in 35.0 W/m2 BKN
17:25 17.1 °F 14.7 °F 1015.8 in South 25.9 mph 25.9 mph 86 % 2.5 in 56.0 W/m2 BKN
17:30 17.3 °F 14.9 °F 1015.8 in WSW 13.0 mph 13.0 mph 86 % 1.5 in 188.0 W/m2 SCT
17:35 17.5 °F 15.3 °F 1016.1 in Calm   0.8 mph 87 % 1.0 in 267.0 W/m2 CLR
17:40 17.7 °F 15.6 °F 1016.5 in Calm     87 % 0.8 in 824.0 W/m2 CLR
17:45 18.2 °F 15.8 °F 1016.5 in WSW 6.4 mph 6.4 mph 86 % 0.8 in 677.0 W/m2 CLR
17:50 18.7 °F 16.3 °F 1016.1 in SSE 11.1 mph 11.1 mph 86 % 0.5 in 573.0 W/m2 CLR
17:55 19.1 °F 16.3 °F 1016.1 in SSW 18.5 mph 18.5 mph 84 % 0.5 in 555.0 W/m2 CLR
18:00 19.4 °F 16.4 °F 1016.1 in South 16.7 mph 16.7 mph 83 % 0.5 in 541.0 W/m2 CLR
18:05 19.7 °F 16.5 °F 1016.1 in South 14.5 mph 14.5 mph 82 % 0.5 in 529.0 W/m2 CLR
18:10 19.9 °F 16.7 °F 1016.1 in South 1.9 mph   82 % 0.0 in 513.0 W/m2 CLR
18:15 20.2 °F 17.2 °F 1016.1 in SSW 5.6 mph 5.6 mph 83 % 0.0 in 490.0 W/m2 CLR
18:20 20.5 °F 17.3 °F 1016.1 in Calm     82 % 0.0 in 480.0 W/m2 CLR
18:25 20.8 °F 17.2 °F 1015.8 in SSW 5.6 mph   80 % 0.0 in 464.0 W/m2 CLR
18:30 21.1 °F 17.4 °F 1015.5 in Calm     80 % 0.0 in 446.0 W/m2 CLR
18:35 21.3 °F 17.6 °F 1015.5 in WSW 7.4 mph   79 % 0.0 in 434.0 W/m2 CLR
18:40 21.7 °F 17.7 °F 1015.5 in Calm     78 % 0.0 in 415.0 W/m2 CLR
18:45 21.9 °F 17.1 °F 1015.1 in Calm     74 % 0.0 in 399.0 W/m2 CLR
18:50 22.0 °F 17.4 °F 1015.1 in Calm     75 % 0.0 in 383.0 W/m2 CLR
18:55 22.3 °F 17.6 °F 1015.1 in Calm     75 % 0.0 in 369.0 W/m2 CLR
19:01 22.5 °F 17.4 °F 1015.1 in Calm     73 % 0.0 in 355.0 W/m2 CLR
19:05 22.7 °F 17.1 °F 1015.1 in Calm     71 % 0.0 in 338.0 W/m2 CLR
19:10 22.9 °F 17.1 °F 1015.1 in Calm     70 % 0.0 in 322.0 W/m2 CLR
19:16 23.1 °F 16.9 °F 1015.1 in Calm     68 % 0.0 in 308.0 W/m2 CLR
19:21 23.3 °F 16.8 °F 1015.1 in Calm     67 % 0.0 in 294.0 W/m2 CLR
19:26 23.7 °F 17.2 °F 1014.8 in Calm   0.3 mph 67 % 0.0 in 278.0 W/m2 CLR
19:31 23.8 °F 16.8 °F 1014.8 in Calm     65 % 0.0 in 262.0 W/m2 CLR
19:36 24.1 °F 17.6 °F 1014.8 in Calm     67 % 0.0 in 248.0 W/m2 CLR
19:41 24.2 °F 17.4 °F 1014.8 in Calm     66 % 0.0 in 169.0 W/m2 CLR
19:46 24.1 °F 17.6 °F 1014.8 in Calm     67 % 0.0 in 188.0 W/m2 CLR
19:51 23.8 °F 17.5 °F 1014.8 in Calm     68 % 0.0 in 144.0 W/m2 CLR
19:56 23.8 °F 17.3 °F 1014.8 in Calm     67 % 0.0 in 132.0 W/m2 CLR
20:01 23.9 °F 17.6 °F 1014.8 in Calm     68 % 0.0 in 174.0 W/m2 CLR
20:06 24.1 °F 17.8 °F 1014.8 in Calm     68 % 0.0 in 160.0 W/m2 CLR
20:11 24.3 °F 17.8 °F 1015.1 in Calm     67 % 0.0 in 139.0 W/m2 CLR
20:16 24.6 °F 17.8 °F 1015.1 in Calm     66 % 0.0 in 98.0 W/m2 CLR
20:21 24.6 °F 18.1 °F 1015.1 in Calm     67 % 0.0 in 42.0 W/m2 CLR
20:26 24.4 °F 18.1 °F 1015.1 in Calm     68 % 0.0 in 40.0 W/m2 SCT
20:31 24.3 °F 18.2 °F 1015.1 in Calm     69 % 0.0 in 67.0 W/m2 FEW
20:36 24.3 °F 18.2 °F 1015.1 in Calm     69 % 0.0 in 54.0 W/m2 SCT
20:41 24.5 °F 19.1 °F 1015.1 in Calm     72 % 0.0 in 54.0 W/m2 SCT
20:46 24.4 °F 18.6 °F 1015.1 in Calm     70 % 0.0 in 49.0 W/m2 SCT
20:51 24.2 °F 18.2 °F 1015.1 in Calm     69 % 0.0 in 46.0 W/m2 SCT
20:56 24.1 °F 18.2 °F 1015.1 in Calm     70 % 0.0 in 37.0 W/m2 BKN
21:01 23.9 °F 18.6 °F 1015.1 in Calm     72 % 0.0 in 25.0 W/m2 BKN
21:06 23.6 °F 18.2 °F 1015.1 in Calm     72 % 0.0 in 18.0 W/m2 BKN
21:11 23.2 °F 18.1 °F 1015.1 in WSW 7.4 mph 7.4 mph 73 % 0.0 in 12.0 W/m2 BKN
21:16 23.0 °F 18.3 °F 1015.5 in Calm     75 % 0.3 in 9.0 W/m2 RA
21:21 22.8 °F 18.3 °F 1015.5 in SW 5.6 mph 5.6 mph 76 % 0.3 in 5.0 W/m2
21:26 22.6 °F 18.2 °F 1015.5 in Calm     76 % 0.3 in 0.0 W/m2 CLR
21:31 22.6 °F 17.9 °F 1015.5 in Calm     75 % 0.3 in 0.0 W/m2 OVC
21:36 22.5 °F 17.8 °F 1015.5 in Calm     75 % 0.3 in 0.0 W/m2 CLR
21:41 22.4 °F 17.8 °F 1015.8 in Calm     75 % 0.3 in 0.0 W/m2 CLR
21:46 22.4 °F 17.7 °F 1015.8 in Calm     75 % 0.3 in 0.0 W/m2 CLR
21:51 22.4 °F 17.8 °F 1015.8 in Calm     75 % 0.3 in 0.0 W/m2 CLR
21:56 22.4 °F 17.9 °F 1015.8 in Calm     76 % 0.3 in 0.0 W/m2 CLR
22:01 22.3 °F 17.8 °F 1016.1 in Calm     76 % 0.3 in 0.0 W/m2 CLR
22:06 22.2 °F 17.9 °F 1016.1 in Calm     77 % 0.3 in 0.0 W/m2 CLR
22:11 22.1 °F 18.1 °F 1016.1 in Calm     78 % 0.3 in 0.0 W/m2 CLR
22:16 21.9 °F 18.1 °F 1016.1 in Calm     79 % 0.0 in 0.0 W/m2 CLR
22:21 21.7 °F 18.1 °F 1016.1 in Calm     80 % 0.0 in 0.0 W/m2 CLR
22:26 21.5 °F 18.1 °F 1016.5 in Calm     81 % 0.0 in 0.0 W/m2 CLR
22:31 21.4 °F 18.0 °F 1016.5 in Calm     81 % 0.0 in 0.0 W/m2 CLR
22:36 21.3 °F 18.1 °F 1016.5 in Calm     82 % 0.0 in 0.0 W/m2 CLR
22:41 21.2 °F 18.2 °F 1016.8 in Calm     83 % 0.0 in 0.0 W/m2 CLR
22:46 20.9 °F 18.1 °F 1016.5 in Calm     84 % 0.0 in 0.0 W/m2 CLR
22:51 20.7 °F 18.3 °F 1016.8 in Calm     86 % 0.0 in 0.0 W/m2 CLR
22:56 20.6 °F 18.1 °F 1016.8 in Calm     86 % 0.0 in 0.0 W/m2 CLR
23:01 20.4 °F 17.9 °F 1016.8 in Calm     86 % 0.0 in 0.0 W/m2 CLR
23:03 20.3 °F 18.1 °F 1016.8 in Calm     87 % 0.0 in 0.0 W/m2 CLR
23:08 20.3 °F 18.1 °F 1016.8 in Calm     87 % 0.0 in 0.0 W/m2 CLR
23:13 20.2 °F 18.0 °F 1016.8 in Calm     87 % 0.0 in 0.0 W/m2 CLR
23:18 20.2 °F 18.1 °F 1016.8 in Calm     88 % 0.0 in 0.0 W/m2 CLR
23:23 20.1 °F 18.1 °F 1016.8 in Calm     88 % 0.0 in 0.0 W/m2 CLR
23:28 20.0 °F 17.9 °F 1016.8 in Calm     88 % 0.0 in 0.0 W/m2 CLR
23:29 20.0 °F 17.9 °F 1016.8 in Calm     88 % 0.0 in 0.0 W/m2 CLR
23:34 19.9 °F 17.8 °F 1016.8 in Calm     88 % 0.0 in 0.0 W/m2 CLR
23:39 19.8 °F 17.9 °F 1016.8 in Calm     89 % 0.0 in 0.0 W/m2 CLR
23:44 19.7 °F 17.8 °F 1016.8 in WSW 3.7 mph   89 % 0.0 in 0.0 W/m2 CLR
23:49 19.6 °F 17.7 °F 1017.2 in Calm     89 % 0.0 in 0.0 W/m2 CLR
23:54 19.6 °F 17.7 °F 1017.2 in Calm     89 % 0.0 in 0.0 W/m2 CLR
23:59 19.6 °F 17.7 °F 1017.2 in Calm     89 % 0.0 in 0.0 W/m2 CLR
Lo Temps de Massalio
Compliments of Weather Underground - 1.25 mb